Time;durP1;ratioP1;P1;durP2;ratioP2;P2;SDS_P1;SDS_P2;PMS_P1;PMS_P2;Temp;Humidity;BMP_temperature;BMP_pressure;BME280_temperature;BME280_humidity;BME280_pressure;Samples;Min_cycle;Max_cycle;Signal;HPM_P1;HPM_P2
2024/02/16 00:00:25;;;;;;;6.57;5.90;;;10.60;99.90;;;;;;5061305;28;20186;-62
2024/02/16 00:02:52;;;;;;;7.90;7.00;;;10.60;99.90;;;;;;5067682;28;20517;-62
2024/02/16 00:05:18;;;;;;;7.50;6.60;;;10.60;99.90;;;;;;5059146;28;20457;-63
2024/02/16 00:07:43;;;;;;;7.60;6.90;;;10.60;99.90;;;;;;5061910;28;20538;-63
2024/02/16 00:10:10;;;;;;;7.57;6.33;;;10.50;99.90;;;;;;5059468;28;20487;-63
2024/02/16 00:12:36;;;;;;;7.53;6.57;;;10.50;99.90;;;;;;5066994;28;20292;-63
2024/02/16 00:15:02;;;;;;;10.13;7.20;;;10.50;99.90;;;;;;5065627;28;20433;-62
2024/02/16 00:17:28;;;;;;;9.93;7.43;;;10.50;99.90;;;;;;5060810;28;20474;-63
2024/02/16 00:19:57;;;;;;;8.47;7.50;;;10.50;99.90;;;;;;5067304;28;20910;-63
2024/02/16 00:22:23;;;;;;;9.03;7.67;;;10.50;99.90;;;;;;5066242;28;20221;-63
2024/02/16 00:24:49;;;;;;;10.00;7.70;;;10.50;99.90;;;;;;5055372;28;20424;-63
2024/02/16 00:27:15;;;;;;;10.47;8.20;;;10.50;99.90;;;;;;5055293;28;20422;-63
2024/02/16 00:29:41;;;;;;;9.57;8.67;;;10.40;99.90;;;;;;5066428;28;20791;-64
2024/02/16 00:32:07;;;;;;;9.27;8.23;;;10.40;99.90;;;;;;5067158;28;20510;-64
2024/02/16 00:34:36;;;;;;;12.60;10.73;;;10.40;99.90;;;;;;5064261;28;20493;-66
2024/02/16 00:37:03;;;;;;;11.73;9.53;;;10.40;99.90;;;;;;5060826;28;20254;-63
2024/02/16 00:39:29;;;;;;;14.70;10.20;;;10.40;99.90;;;;;;5049869;28;20544;-63
2024/02/16 00:41:55;;;;;;;12.20;8.80;;;10.40;99.90;;;;;;5057889;28;20449;-63
2024/02/16 00:44:20;;;;;;;13.20;9.80;;;10.30;99.90;;;;;;5053762;28;20434;-63
2024/02/16 00:46:46;;;;;;;11.57;8.83;;;10.30;99.90;;;;;;5070322;28;20205;-63
2024/02/16 00:49:12;;;;;;;12.63;9.83;;;10.30;99.90;;;;;;5070613;28;20178;-64
2024/02/16 00:51:38;;;;;;;11.43;8.60;;;10.30;99.90;;;;;;5060173;28;20268;-63
2024/02/16 00:54:04;;;;;;;13.13;9.70;;;10.30;99.90;;;;;;5065905;28;20178;-64
2024/02/16 00:56:33;;;;;;;13.20;10.13;;;10.20;99.90;;;;;;5069932;28;20412;-64
2024/02/16 00:58:59;;;;;;;11.17;9.53;;;10.20;99.90;;;;;;5070015;28;20428;-64
2024/02/16 01:01:26;;;;;;;14.23;10.40;;;10.20;99.90;;;;;;5069712;28;20436;-64
2024/02/16 01:03:54;;;;;;;12.30;9.77;;;10.20;99.90;;;;;;5065709;28;20225;-63
2024/02/16 01:06:20;;;;;;;14.70;11.10;;;10.20;99.90;;;;;;5066544;28;20427;-63
2024/02/16 01:08:48;;;;;;;14.53;11.30;;;10.20;99.90;;;;;;5067990;28;20818;-64
2024/02/16 01:11:14;;;;;;;12.70;11.00;;;10.20;99.90;;;;;;5069627;28;20202;-63
2024/02/16 01:13:40;;;;;;;32.47;12.80;;;10.10;99.90;;;;;;5066225;28;20425;-64
2024/02/16 01:16:06;;;;;;;13.97;10.73;;;10.10;99.90;;;;;;5079364;28;20193;-64
2024/02/16 01:18:32;;;;;;;13.40;11.37;;;10.20;99.90;;;;;;5073590;28;20525;-63
2024/02/16 01:20:58;;;;;;;14.70;10.27;;;10.20;99.90;;;;;;5073729;28;20812;-63
2024/02/16 01:23:24;;;;;;;13.33;11.83;;;10.20;99.90;;;;;;5069006;28;20498;-63
2024/02/16 01:25:50;;;;;;;13.43;10.30;;;10.20;99.90;;;;;;5073661;28;20459;-62
2024/02/16 01:28:16;;;;;;;14.07;10.67;;;10.10;99.90;;;;;;5073651;28;20420;-62
2024/02/16 01:30:42;;;;;;;15.13;12.07;;;10.10;99.90;;;;;;5065103;28;20218;-62
2024/02/16 01:33:07;;;;;;;15.33;10.50;;;10.10;99.90;;;;;;5068105;28;20186;-62
2024/02/16 01:35:33;;;;;;;12.63;11.10;;;10.10;99.90;;;;;;5071211;28;20269;-63
2024/02/16 01:37:59;;;;;;;14.53;10.83;;;10.10;99.90;;;;;;5060692;28;20170;-63
2024/02/16 01:40:26;;;;;;;16.90;10.10;;;10.10;99.90;;;;;;5063040;28;20460;-63
2024/02/16 01:42:55;;;;;;;14.97;11.17;;;10.10;99.90;;;;;;5066440;28;20194;-63
2024/02/16 01:45:21;;;;;;;15.00;10.80;;;10.00;99.90;;;;;;5073744;28;20458;-63
2024/02/16 01:47:50;;;;;;;16.10;10.90;;;10.00;99.90;;;;;;5073236;28;20416;-63
2024/02/16 01:50:17;;;;;;;12.60;10.20;;;10.00;99.90;;;;;;5055273;28;20559;-63
2024/02/16 01:52:44;;;;;;;13.37;10.10;;;10.00;99.90;;;;;;5068579;28;20862;-64
2024/02/16 01:55:11;;;;;;;15.50;11.63;;;9.90;99.90;;;;;;5073320;28;20424;-63
2024/02/16 01:57:39;;;;;;;12.13;10.00;;;9.90;99.90;;;;;;5063221;28;20412;-64
2024/02/16 02:00:07;;;;;;;13.17;11.30;;;9.90;99.90;;;;;;5062041;28;20429;-63
2024/02/16 02:02:34;;;;;;;14.00;11.30;;;9.90;99.90;;;;;;5059807;28;20445;-63
2024/02/16 02:04:59;;;;;;;20.23;11.40;;;9.90;99.90;;;;;;5073155;28;20420;-63
2024/02/16 02:07:27;;;;;;;16.80;10.90;;;9.90;99.90;;;;;;5071770;28;20922;-62
2024/02/16 02:09:52;;;;;;;15.20;13.10;;;9.90;99.90;;;;;;5066165;28;20282;-62
2024/02/16 02:12:18;;;;;;;16.77;12.70;;;9.90;99.90;;;;;;5062849;28;20478;-61
2024/02/16 02:14:44;;;;;;;13.13;10.87;;;9.90;99.90;;;;;;5071678;28;20208;-62
2024/02/16 02:17:10;;;;;;;14.83;11.53;;;9.90;99.90;;;;;;5066535;28;20183;-61
2024/02/16 02:19:35;;;;;;;17.77;10.93;;;9.90;99.90;;;;;;5067671;28;20174;-63
2024/02/16 02:22:01;;;;;;;13.27;11.43;;;9.80;99.90;;;;;;5068933;28;20551;-62
2024/02/16 02:24:27;;;;;;;16.57;11.67;;;9.80;99.90;;;;;;5060210;28;20589;-62
2024/02/16 02:26:52;;;;;;;17.73;12.67;;;9.80;99.90;;;;;;5046629;28;20186;-62
2024/02/16 02:29:18;;;;;;;15.60;11.50;;;9.80;99.90;;;;;;5072522;28;20190;-62
2024/02/16 02:31:44;;;;;;;16.90;12.43;;;9.80;99.90;;;;;;5072240;28;20270;-61
2024/02/16 02:34:10;;;;;;;17.70;13.20;;;9.70;99.90;;;;;;5071255;28;20204;-60
2024/02/16 02:36:36;;;;;;;17.77;13.40;;;9.70;99.90;;;;;;5064596;28;20209;-61
2024/02/16 02:39:01;;;;;;;15.70;12.23;;;9.70;99.90;;;;;;5068029;28;20448;-61
2024/02/16 02:41:27;;;;;;;16.10;12.23;;;9.70;99.90;;;;;;5063262;28;20205;-62
2024/02/16 02:43:53;;;;;;;18.90;13.40;;;9.70;99.90;;;;;;5056171;28;20186;-62
2024/02/16 02:46:18;;;;;;;24.67;15.50;;;9.70;99.90;;;;;;5054097;28;20224;-61
2024/02/16 02:48:45;;;;;;;15.43;13.23;;;9.60;99.90;;;;;;5072533;28;20179;-62
2024/02/16 02:51:11;;;;;;;16.57;12.53;;;9.70;99.90;;;;;;5064559;28;20226;-60
2024/02/16 02:53:37;;;;;;;17.77;13.87;;;9.70;99.90;;;;;;5056946;28;20469;-63
2024/02/16 02:56:03;;;;;;;19.30;13.77;;;9.60;99.90;;;;;;5072359;28;20182;-62
2024/02/16 02:58:29;;;;;;;19.33;14.50;;;9.70;99.90;;;;;;5072197;28;20177;-63
2024/02/16 03:00:54;;;;;;;17.70;13.80;;;9.70;99.90;;;;;;5072170;28;20512;-61
2024/02/16 03:03:21;;;;;;;17.47;14.40;;;9.70;99.90;;;;;;5072037;28;20202;-61
2024/02/16 03:05:47;;;;;;;16.80;12.93;;;9.70;99.90;;;;;;5058955;28;20182;-61
2024/02/16 03:08:13;;;;;;;17.37;13.57;;;9.70;99.90;;;;;;5045189;28;20422;-62
2024/02/16 03:10:39;;;;;;;17.67;14.43;;;9.70;99.90;;;;;;5051945;28;20233;-62
2024/02/16 03:13:06;;;;;;;18.90;12.80;;;9.70;99.90;;;;;;5066163;28;20173;-62
2024/02/16 03:15:33;;;;;;;16.67;12.17;;;9.70;99.90;;;;;;5061156;28;20413;-63
2024/02/16 03:17:59;;;;;;;17.50;15.03;;;9.70;99.90;;;;;;5059756;28;20401;-62
2024/02/16 03:20:25;;;;;;;16.37;14.10;;;9.70;99.90;;;;;;5055782;28;20421;-62
2024/02/16 03:22:50;;;;;;;15.60;12.53;;;9.70;99.90;;;;;;5065163;28;20450;-62
2024/02/16 03:25:16;;;;;;;17.53;14.07;;;9.70;99.90;;;;;;5070082;28;20166;-62
2024/02/16 03:27:42;;;;;;;15.53;12.30;;;9.70;99.90;;;;;;5057377;28;20182;-62
2024/02/16 03:30:08;;;;;;;16.30;12.17;;;9.70;99.90;;;;;;5069622;28;20201;-62
2024/02/16 03:32:34;;;;;;;17.03;12.10;;;9.70;99.90;;;;;;5071226;28;20536;-62
2024/02/16 03:35:00;;;;;;;16.07;13.43;;;9.70;99.90;;;;;;5070870;28;20409;-62
2024/02/16 03:37:26;;;;;;;19.70;14.83;;;9.70;99.90;;;;;;5059696;28;20179;-62
2024/02/16 03:39:53;;;;;;;17.40;12.43;;;9.80;99.90;;;;;;5070735;28;20409;-61
2024/02/16 03:42:19;;;;;;;16.73;13.17;;;9.70;99.90;;;;;;5068590;28;20273;-61
2024/02/16 03:44:45;;;;;;;17.27;11.77;;;9.70;99.90;;;;;;5070833;28;20504;-62
2024/02/16 03:47:11;;;;;;;17.20;12.10;;;9.70;99.90;;;;;;5071069;28;20475;-62
2024/02/16 03:49:38;;;;;;;15.20;10.80;;;9.70;99.90;;;;;;5070837;28;20443;-62
2024/02/16 03:52:04;;;;;;;15.00;11.30;;;9.80;99.90;;;;;;5067236;28;20205;-62
2024/02/16 03:54:30;;;;;;;15.67;12.83;;;9.80;99.90;;;;;;5066147;28;20469;-63
2024/02/16 03:56:57;;;;;;;14.60;11.50;;;9.70;99.90;;;;;;5051241;28;20605;-63
2024/02/16 03:59:24;;;;;;;15.47;11.57;;;9.70;99.90;;;;;;5070805;28;20878;-62
2024/02/16 04:01:49;;;;;;;18.00;13.47;;;9.70;99.90;;;;;;5066860;28;20436;-62
2024/02/16 04:04:15;;;;;;;13.63;12.20;;;9.60;99.90;;;;;;5065989;28;20417;-62
2024/02/16 04:06:41;;;;;;;17.47;11.93;;;9.60;99.90;;;;;;5068621;28;20667;-62
2024/02/16 04:09:07;;;;;;;17.27;11.70;;;9.60;99.90;;;;;;5070653;28;20401;-62
2024/02/16 04:11:33;;;;;;;14.00;11.53;;;9.60;99.90;;;;;;5068771;28;20221;-61
2024/02/16 04:13:59;;;;;;;21.57;13.13;;;9.70;99.90;;;;;;5068335;28;20512;-64
2024/02/16 04:16:25;;;;;;;19.77;11.80;;;9.70;99.90;;;;;;5063151;28;20508;-63
2024/02/16 04:18:51;;;;;;;15.13;12.07;;;9.70;99.90;;;;;;5061161;28;20175;-62
2024/02/16 04:21:17;;;;;;;17.43;12.60;;;9.60;99.90;;;;;;5061154;28;20211;-62
2024/02/16 04:23:43;;;;;;;16.00;10.67;;;9.60;99.90;;;;;;5063636;28;20421;-62
2024/02/16 04:26:09;;;;;;;15.90;11.77;;;9.60;99.90;;;;;;5070452;28;20201;-61
2024/02/16 04:28:35;;;;;;;14.00;11.40;;;9.60;99.90;;;;;;5070246;28;20946;-63
2024/02/16 04:31:01;;;;;;;13.90;10.80;;;9.60;99.90;;;;;;5059560;28;20236;-63
2024/02/16 04:33:26;;;;;;;16.90;11.67;;;9.60;99.90;;;;;;5060509;28;20917;-63
2024/02/16 04:35:52;;;;;;;14.53;12.40;;;9.60;99.90;;;;;;5060482;28;20174;-63
2024/02/16 04:38:18;;;;;;;14.80;10.83;;;9.60;99.90;;;;;;5069986;28;20890;-63
2024/02/16 04:40:43;;;;;;;13.63;10.50;;;9.60;99.90;;;;;;5070407;28;20197;-64
2024/02/16 04:43:09;;;;;;;15.43;11.90;;;9.60;99.90;;;;;;5059797;28;20416;-62
2024/02/16 04:45:35;;;;;;;14.43;11.30;;;9.60;99.90;;;;;;5070506;28;20170;-64
2024/02/16 04:48:08;;;;;;;14.10;11.23;;;9.60;99.90;;;;;;5067883;28;20629;-64
2024/02/16 04:50:35;;;;;;;13.73;10.80;;;9.60;99.90;;;;;;5062005;28;20456;-61
2024/02/16 04:53:03;;;;;;;17.67;12.40;;;9.60;99.90;;;;;;5061983;28;20404;-64
2024/02/16 04:55:30;;;;;;;14.13;10.13;;;9.60;99.90;;;;;;5070112;28;20461;-64
2024/02/16 04:57:56;;;;;;;16.70;11.50;;;9.60;99.90;;;;;;5070096;28;20798;-63
2024/02/16 05:00:22;;;;;;;15.50;11.73;;;9.70;99.90;;;;;;5063174;28;20432;-63
2024/02/16 05:02:48;;;;;;;17.50;12.03;;;9.60;99.90;;;;;;5066977;28;20433;-63
2024/02/16 05:05:15;;;;;;;12.00;10.53;;;9.70;99.90;;;;;;5062737;28;20431;-63
2024/02/16 05:07:42;;;;;;;12.60;10.60;;;9.70;99.90;;;;;;5054690;28;20409;-63
2024/02/16 05:10:10;;;;;;;15.60;11.83;;;9.70;99.90;;;;;;5070148;28;20438;-62
2024/02/16 05:12:37;;;;;;;12.27;10.17;;;9.70;99.90;;;;;;5070400;28;20520;-63
2024/02/16 05:15:03;;;;;;;14.67;12.67;;;9.70;99.90;;;;;;5069386;28;20499;-63
2024/02/16 05:17:29;;;;;;;11.77;8.90;;;9.70;99.90;;;;;;5060642;28;20410;-63
2024/02/16 05:19:54;;;;;;;12.70;8.90;;;9.70;99.90;;;;;;5066918;28;20417;-63
2024/02/16 05:22:21;;;;;;;13.23;9.63;;;9.60;99.90;;;;;;5062036;28;20209;-63
2024/02/16 05:24:47;;;;;;;13.93;10.23;;;9.60;99.90;;;;;;5068077;28;20208;-63
2024/02/16 05:27:13;;;;;;;14.60;11.03;;;9.60;99.90;;;;;;5070602;28;20436;-63
2024/02/16 05:29:40;;;;;;;11.07;9.93;;;9.60;99.90;;;;;;5060353;28;20445;-63
2024/02/16 05:32:06;;;;;;;13.20;9.50;;;9.60;99.90;;;;;;5062975;28;20460;-64
2024/02/16 05:34:37;;;;;;;14.83;10.60;;;9.60;99.90;;;;;;5070224;28;20419;-63
2024/02/16 05:37:06;;;;;;;15.63;9.70;;;9.60;99.90;;;;;;5063261;28;20455;-62
2024/02/16 05:39:53;;;;;;;12.40;9.50;;;9.60;99.90;;;;;;5062153;28;20440;-62
2024/02/16 05:42:22;;;;;;;13.20;9.97;;;9.60;99.90;;;;;;5062711;28;20522;-63
2024/02/16 05:44:47;;;;;;;12.97;9.77;;;9.60;99.90;;;;;;5069973;28;20409;-62
2024/02/16 05:47:15;;;;;;;11.80;8.97;;;9.70;99.90;;;;;;5068171;28;20851;-63
2024/02/16 05:49:40;;;;;;;12.73;10.27;;;9.80;99.90;;;;;;5069889;28;20767;-63
2024/02/16 05:52:18;;;;;;;15.20;9.70;;;9.70;99.90;;;;;;5061261;28;20509;-62
2024/02/16 05:54:48;;;;;;;13.10;10.43;;;9.70;99.90;;;;;;5069567;28;20647;-63
2024/02/16 05:57:14;;;;;;;15.40;9.30;;;9.60;99.90;;;;;;5065916;28;20432;-63
2024/02/16 05:59:41;;;;;;;9.67;8.63;;;9.60;99.90;;;;;;5071745;28;20772;-63
2024/02/16 06:02:07;;;;;;;13.90;9.73;;;9.60;99.90;;;;;;5066343;28;20444;-63
2024/02/16 06:04:33;;;;;;;10.73;8.57;;;9.60;99.90;;;;;;5073288;28;20752;-64
2024/02/16 06:06:59;;;;;;;12.70;9.50;;;9.60;99.90;;;;;;5070434;28;20600;-63
2024/02/16 06:09:25;;;;;;;14.17;10.17;;;9.60;99.90;;;;;;5073304;28;20511;-63
2024/02/16 06:11:51;;;;;;;13.63;10.37;;;9.50;99.90;;;;;;5072298;28;20239;-63
2024/02/16 06:14:16;;;;;;;12.67;9.73;;;9.50;99.90;;;;;;5071164;28;20456;-62
2024/02/16 06:16:42;;;;;;;12.20;9.80;;;9.50;99.90;;;;;;5072957;28;20832;-63
2024/02/16 06:19:08;;;;;;;12.10;10.27;;;9.50;99.90;;;;;;5072958;28;20244;-63
2024/02/16 06:21:35;;;;;;;14.93;9.57;;;9.50;99.90;;;;;;5067749;28;20572;-63
2024/02/16 06:24:00;;;;;;;12.30;9.57;;;9.50;99.90;;;;;;5053449;28;20185;-63
2024/02/16 06:26:26;;;;;;;18.10;10.03;;;9.50;99.90;;;;;;5066242;28;20417;-63
2024/02/16 06:28:52;;;;;;;10.90;9.03;;;9.60;99.90;;;;;;5071206;28;20514;-63
2024/02/16 06:31:17;;;;;;;13.43;10.07;;;9.60;99.90;;;;;;5064966;28;20198;-63
2024/02/16 06:33:43;;;;;;;12.60;8.37;;;9.50;99.90;;;;;;5063969;28;20241;-64
2024/02/16 06:36:09;;;;;;;15.83;9.80;;;9.60;99.90;;;;;;5064174;28;20167;-63
2024/02/16 06:38:37;;;;;;;10.03;9.00;;;9.60;99.90;;;;;;5065610;28;20187;-63
2024/02/16 06:41:03;;;;;;;11.27;8.97;;;9.60;99.90;;;;;;5058182;28;20436;-63
2024/02/16 06:43:29;;;;;;;13.87;8.90;;;9.70;99.90;;;;;;5057714;28;20425;-66
2024/02/16 06:45:56;;;;;;;13.33;8.97;;;9.70;99.90;;;;;;5061137;28;20432;-63
2024/02/16 06:48:22;;;;;;;12.93;10.27;;;9.70;99.90;;;;;;5060373;28;20605;-64
2024/02/16 06:50:48;;;;;;;12.53;9.60;;;9.70;99.90;;;;;;5057877;28;20449;-64
2024/02/16 06:53:14;;;;;;;11.50;9.03;;;9.70;99.90;;;;;;5063809;28;20412;-63
2024/02/16 06:55:40;;;;;;;11.93;9.33;;;9.70;99.90;;;;;;5074021;28;20272;-64
2024/02/16 06:58:06;;;;;;;13.10;8.93;;;9.70;99.90;;;;;;5064928;28;20401;-63
2024/02/16 07:00:32;;;;;;;8.60;7.50;;;9.70;99.90;;;;;;5060075;28;20217;-63
2024/02/16 07:02:57;;;;;;;10.30;9.13;;;9.70;99.90;;;;;;5068740;28;20189;-63
2024/02/16 07:05:23;;;;;;;11.00;9.73;;;9.70;99.90;;;;;;5056926;28;20177;-63
2024/02/16 07:07:50;;;;;;;12.57;10.03;;;9.70;99.90;;;;;;5065087;28;20257;-63
2024/02/16 07:10:16;;;;;;;13.33;10.77;;;9.80;99.90;;;;;;5044029;28;20191;-63
2024/02/16 07:12:41;;;;;;;13.30;10.00;;;9.80;99.90;;;;;;5056875;28;20449;-63
2024/02/16 07:15:08;;;;;;;11.57;10.03;;;9.80;99.90;;;;;;5050882;28;20812;-63
2024/02/16 07:17:34;;;;;;;11.53;8.97;;;9.80;99.90;;;;;;5050810;28;20246;-63
2024/02/16 07:20:03;;;;;;;12.17;10.07;;;9.80;99.90;;;;;;5050773;28;20452;-63
2024/02/16 07:22:29;;;;;;;10.43;9.33;;;9.90;99.90;;;;;;5015490;28;1147658;-62
2024/02/16 07:24:55;;;;;;;12.03;9.23;;;9.90;99.90;;;;;;5053325;28;20223;-63
2024/02/16 07:27:21;;;;;;;12.87;9.50;;;9.90;99.90;;;;;;5051679;28;20417;-63
2024/02/16 07:29:46;;;;;;;12.00;9.57;;;10.00;99.90;;;;;;5065496;28;20179;-63
2024/02/16 07:32:12;;;;;;;16.70;10.10;;;10.00;99.90;;;;;;5053842;28;20477;-63
2024/02/16 07:34:38;;;;;;;11.13;9.40;;;10.00;99.90;;;;;;5054944;28;20606;-63
2024/02/16 07:37:04;;;;;;;13.10;9.53;;;10.10;99.90;;;;;;5060032;28;20182;-63
2024/02/16 07:39:30;;;;;;;12.90;8.80;;;10.20;99.90;;;;;;5052169;28;20183;-62
2024/02/16 07:41:55;;;;;;;14.83;9.97;;;10.40;99.90;;;;;;5056103;28;20899;-63
2024/02/16 07:44:21;;;;;;;12.23;8.67;;;10.50;99.90;;;;;;5051729;28;20769;-64
2024/02/16 07:46:49;;;;;;;11.87;9.13;;;10.70;99.90;;;;;;5051292;28;20190;-67
2024/02/16 07:49:15;;;;;;;15.07;10.50;;;10.80;99.90;;;;;;5051946;28;20174;-64
2024/02/16 07:51:40;;;;;;;12.50;9.03;;;11.00;99.90;;;;;;5058800;28;20487;-63
2024/02/16 07:54:07;;;;;;;13.17;8.93;;;11.30;99.90;;;;;;5059968;28;20201;-64
2024/02/16 07:56:34;;;;;;;9.70;8.70;;;11.40;99.90;;;;;;5057182;28;20301;-63
2024/02/16 07:59:00;;;;;;;11.17;9.23;;;11.70;99.90;;;;;;5050744;28;20417;-63
2024/02/16 08:01:26;;;;;;;12.53;9.20;;;11.60;99.90;;;;;;5051834;28;20442;-65
2024/02/16 08:03:53;;;;;;;11.40;8.80;;;12.00;99.90;;;;;;5062945;28;20430;-65
2024/02/16 08:06:20;;;;;;;10.90;8.40;;;12.50;99.90;;;;;;5056067;28;20428;-64
2024/02/16 08:08:47;;;;;;;9.37;8.20;;;12.80;99.90;;;;;;5052793;28;20860;-64
2024/02/16 08:11:13;;;;;;;11.50;6.70;;;13.10;99.90;;;;;;5059541;28;20472;-65
2024/02/16 08:13:38;;;;;;;7.43;6.60;;;13.50;99.90;;;;;;5050802;28;20417;-63
2024/02/16 08:16:06;;;;;;;9.13;7.80;;;13.80;99.90;;;;;;5058821;28;20213;-63
2024/02/16 08:18:33;;;;;;;9.03;7.07;;;13.60;99.90;;;;;;5050545;28;20184;-63
2024/02/16 08:20:59;;;;;;;8.97;7.60;;;13.50;99.90;;;;;;5052094;28;20452;-65
2024/02/16 08:23:24;;;;;;;12.37;8.77;;;13.30;99.90;;;;;;5051576;28;20433;-64
2024/02/16 08:25:50;;;;;;;9.73;8.00;;;13.30;99.90;;;;;;5053124;28;20174;-63
2024/02/16 08:28:16;;;;;;;8.10;6.87;;;13.40;99.90;;;;;;5049204;28;20622;-63
2024/02/16 08:30:43;;;;;;;9.90;8.90;;;14.10;99.90;;;;;;5050059;28;20340;-62
2024/02/16 08:33:09;;;;;;;13.30;9.10;;;14.20;99.90;;;;;;5053479;28;20180;-63
2024/02/16 08:35:35;;;;;;;9.00;8.10;;;14.20;99.90;;;;;;5055325;28;20770;-64
2024/02/16 08:38:01;;;;;;;11.13;9.10;;;13.80;99.90;;;;;;5050957;28;20429;-63
2024/02/16 08:40:26;;;;;;;10.93;8.90;;;13.80;99.90;;;;;;5050665;28;20257;-65
2024/02/16 08:42:52;;;;;;;12.73;7.47;;;13.90;99.90;;;;;;5051426;28;20672;-66
2024/02/16 08:45:18;;;;;;;12.33;7.60;;;13.80;99.90;;;;;;5057500;28;20185;-63
2024/02/16 08:47:44;;;;;;;9.57;8.07;;;13.60;99.90;;;;;;5052974;28;20659;-67
2024/02/16 08:50:11;;;;;;;14.60;8.70;;;13.50;99.90;;;;;;5057566;28;20180;-65
2024/02/16 08:52:36;;;;;;;9.33;7.30;;;14.10;99.90;;;;;;5055716;28;20881;-63
2024/02/16 08:55:02;;;;;;;14.17;8.77;;;13.80;99.90;;;;;;5051366;28;20542;-62
2024/02/16 08:57:28;;;;;;;9.77;7.23;;;13.60;99.90;;;;;;5051651;28;20611;-64
2024/02/16 08:59:55;;;;;;;11.23;9.37;;;13.70;99.90;;;;;;5050299;28;20189;-64
2024/02/16 09:02:22;;;;;;;9.77;7.27;;;13.90;99.90;;;;;;5053713;28;20206;-64
2024/02/16 09:04:47;;;;;;;10.37;6.73;;;13.80;99.90;;;;;;5056216;28;20418;-65
2024/02/16 09:07:13;;;;;;;10.30;7.57;;;13.40;99.90;;;;;;5051188;28;20502;-63
2024/02/16 09:09:39;;;;;;;9.30;6.83;;;13.30;99.90;;;;;;5058851;28;20184;-63
2024/02/16 09:12:05;;;;;;;9.20;6.83;;;13.20;99.90;;;;;;5051058;28;20622;-64
2024/02/16 09:14:31;;;;;;;8.53;7.50;;;13.20;99.90;;;;;;5049976;28;20449;-64
2024/02/16 09:16:57;;;;;;;8.70;7.07;;;13.20;99.90;;;;;;5056926;28;20505;-64
2024/02/16 09:19:23;;;;;;;7.13;6.50;;;13.20;99.90;;;;;;5057098;28;20499;-64
2024/02/16 09:21:51;;;;;;;8.60;6.90;;;13.20;99.90;;;;;;5031856;28;20223;-64
2024/02/16 09:24:18;;;;;;;8.77;7.33;;;13.00;99.90;;;;;;5058044;28;20218;-63
2024/02/16 09:26:46;;;;;;;9.00;6.90;;;13.20;99.90;;;;;;5051548;28;20432;-64
2024/02/16 09:29:13;;;;;;;10.20;8.00;;;13.20;99.90;;;;;;5059428;28;20460;-64
2024/02/16 09:31:42;;;;;;;9.13;7.50;;;13.30;99.90;;;;;;5054736;28;20894;-63
2024/02/16 09:34:09;;;;;;;9.40;7.30;;;13.20;99.90;;;;;;5063561;28;20515;-64
2024/02/16 09:36:36;;;;;;;8.77;7.50;;;13.40;99.90;;;;;;5059637;28;20790;-64
2024/02/16 09:39:02;;;;;;;9.37;6.87;;;13.80;99.90;;;;;;5059371;28;20438;-64
2024/02/16 09:41:28;;;;;;;6.73;5.17;;;13.80;99.90;;;;;;5064145;28;20466;-64
2024/02/16 09:43:54;;;;;;;7.50;6.70;;;14.20;99.90;;;;;;5058742;28;20635;-64
2024/02/16 09:46:21;;;;;;;8.83;6.40;;;14.30;99.90;;;;;;5061871;28;20530;-64
2024/02/16 09:48:52;;;;;;;7.23;6.33;;;14.30;99.90;;;;;;5057404;28;20193;-64
2024/02/16 09:51:18;;;;;;;15.90;6.37;;;14.40;99.90;;;;;;5054795;28;20459;-64
2024/02/16 09:53:49;;;;;;;6.90;5.40;;;14.20;99.90;;;;;;5061360;28;20419;-63
2024/02/16 09:56:15;;;;;;;6.43;5.60;;;14.00;99.90;;;;;;5053666;28;20407;-63
2024/02/16 09:58:40;;;;;;;6.10;5.40;;;14.20;99.90;;;;;;5054927;28;20435;-62
2024/02/16 10:01:06;;;;;;;7.80;5.87;;;14.10;99.90;;;;;;5041166;28;20627;-63
2024/02/16 10:03:34;;;;;;;7.10;5.10;;;14.20;99.90;;;;;;5065602;28;20188;-63
2024/02/16 10:06:07;;;;;;;8.23;5.97;;;14.30;99.90;;;;;;5070529;28;20185;-63
2024/02/16 10:08:34;;;;;;;7.00;5.50;;;14.20;99.90;;;;;;5057048;28;20449;-63
2024/02/16 10:11:04;;;;;;;6.40;5.00;;;14.30;99.90;;;;;;5060178;28;20484;-62
2024/02/16 10:13:33;;;;;;;5.00;4.37;;;14.40;99.90;;;;;;5055111;28;20516;-61
2024/02/16 10:16:09;;;;;;;4.87;4.13;;;14.50;99.90;;;;;;5060340;28;20413;-63
2024/02/16 10:18:39;;;;;;;6.40;5.10;;;14.60;99.90;;;;;;5058548;28;20418;-63
2024/02/16 10:21:05;;;;;;;5.57;5.07;;;14.60;99.90;;;;;;5060568;28;20505;-63
2024/02/16 10:23:31;;;;;;;5.80;4.07;;;14.40;99.90;;;;;;5061615;28;20426;-62
2024/02/16 10:25:59;;;;;;;5.60;5.03;;;14.40;99.90;;;;;;5062887;28;20421;-63
2024/02/16 10:28:28;;;;;;;8.70;4.27;;;14.30;99.90;;;;;;5064716;28;20962;-64
2024/02/16 10:31:04;;;;;;;6.30;4.47;;;14.20;99.90;;;;;;5061222;28;20457;-63
2024/02/16 10:33:32;;;;;;;5.40;4.07;;;14.30;99.90;;;;;;5062120;28;20872;-63
2024/02/16 10:35:58;;;;;;;4.20;3.80;;;14.40;99.90;;;;;;5061478;28;20609;-64
2024/02/16 10:38:26;;;;;;;5.00;4.50;;;14.30;99.90;;;;;;5063917;28;20515;-64
2024/02/16 10:40:53;;;;;;;5.50;4.43;;;14.40;99.90;;;;;;5066006;28;20483;-64
2024/02/16 10:43:20;;;;;;;4.97;3.73;;;14.60;99.90;;;;;;5065965;28;20842;-63
2024/02/16 10:45:49;;;;;;;13.70;4.47;;;14.60;99.90;;;;;;5057253;28;20432;-64
2024/02/16 10:48:15;;;;;;;5.90;5.00;;;14.50;99.90;;;;;;5052147;28;20438;-63
2024/02/16 10:50:41;;;;;;;4.97;4.23;;;14.40;99.90;;;;;;5061229;28;20466;-64
2024/02/16 10:53:21;;;;;;;5.33;4.80;;;14.40;99.90;;;;;;5061422;28;20418;-64
2024/02/16 10:55:46;;;;;;;3.80;3.40;;;14.60;99.90;;;;;;5064258;28;20536;-64
2024/02/16 10:58:12;;;;;;;5.00;4.50;;;14.50;99.90;;;;;;5062186;28;20520;-64
2024/02/16 11:00:55;;;;;;;4.43;4.00;;;14.40;99.90;;;;;;5072019;28;20254;-64
2024/02/16 11:03:25;;;;;;;4.97;3.83;;;14.50;99.90;;;;;;5059272;28;20236;-64
2024/02/16 11:05:51;;;;;;;4.27;3.70;;;14.50;99.90;;;;;;5066787;28;20474;-63
2024/02/16 11:08:19;;;;;;;4.77;4.37;;;14.50;99.90;;;;;;5065961;28;20419;-62
2024/02/16 11:10:59;;;;;;;5.77;4.07;;;14.50;99.90;;;;;;5067198;28;20450;-63
2024/02/16 11:13:25;;;;;;;5.27;4.73;;;14.50;99.90;;;;;;5057528;28;20434;-63
2024/02/16 11:16:07;;;;;;;6.33;4.57;;;14.70;99.90;;;;;;5060097;28;20423;-63
2024/02/16 11:18:37;;;;;;;5.03;4.40;;;14.80;99.90;;;;;;5056583;28;20465;-64
2024/02/16 11:21:03;;;;;;;4.90;4.50;;;14.80;99.90;;;;;;5065392;28;20439;-62
2024/02/16 11:23:34;;;;;;;9.13;4.13;;;14.80;99.90;;;;;;5060975;28;20415;-63
2024/02/16 11:26:04;;;;;;;5.87;4.90;;;14.90;99.90;;;;;;5055830;28;20947;-62
2024/02/16 11:28:34;;;;;;;4.43;4.03;;;15.00;99.90;;;;;;5061836;28;20467;-62
2024/02/16 11:31:03;;;;;;;6.63;4.80;;;15.20;99.90;;;;;;5058959;28;20455;-63
2024/02/16 11:33:30;;;;;;;4.83;4.30;;;14.90;99.90;;;;;;5064586;28;21092;-63
2024/02/16 11:35:57;;;;;;;4.87;4.03;;;15.00;99.90;;;;;;5056362;28;20411;-63
2024/02/16 11:38:23;;;;;;;5.93;3.90;;;15.20;99.90;;;;;;5047150;28;20518;-63
2024/02/16 11:40:57;;;;;;;6.67;4.33;;;15.10;99.90;;;;;;5069462;28;20417;-62
2024/02/16 11:43:23;;;;;;;5.17;4.67;;;15.30;99.90;;;;;;5053434;28;20950;-63
2024/02/16 11:45:49;;;;;;;6.23;4.67;;;15.40;99.90;;;;;;5061451;28;20482;-63
2024/02/16 11:48:23;;;;;;;6.73;4.03;;;15.50;99.90;;;;;;5067716;28;20800;-63
2024/02/16 11:50:58;;;;;;;5.97;4.40;;;15.40;99.90;;;;;;5061070;28;20202;-63
2024/02/16 11:53:23;;;;;;;5.60;3.67;;;15.70;99.90;;;;;;5056145;28;20412;-62
2024/02/16 11:55:50;;;;;;;5.97;3.60;;;15.90;99.90;;;;;;5067707;28;20419;-63
2024/02/16 11:58:19;;;;;;;4.37;3.87;;;15.90;99.90;;;;;;5060652;28;20170;-63
2024/02/16 12:00:47;;;;;;;4.60;4.13;;;16.10;99.90;;;;;;5061578;28;20425;-63
2024/02/16 12:03:22;;;;;;;6.90;4.43;;;16.10;99.90;;;;;;5054275;28;20904;-63
2024/02/16 12:05:51;;;;;;;5.30;3.60;;;16.10;99.90;;;;;;5040168;28;20420;-63
2024/02/16 12:08:17;;;;;;;5.20;4.00;;;16.00;99.90;;;;;;5060156;28;20442;-62
2024/02/16 12:10:43;;;;;;;8.60;4.17;;;16.10;99.90;;;;;;5055202;28;20484;-62
2024/02/16 12:13:09;;;;;;;3.93;3.53;;;16.00;99.90;;;;;;5058176;28;20174;-63
2024/02/16 12:15:38;;;;;;;3.37;2.90;;;16.20;99.90;;;;;;5067599;28;20184;-63
2024/02/16 12:18:03;;;;;;;4.00;3.60;;;16.30;99.90;;;;;;5059550;28;20429;-63
2024/02/16 12:20:33;;;;;;;4.50;3.30;;;16.40;99.90;;;;;;5069790;28;20447;-64
2024/02/16 12:22:59;;;;;;;10.73;3.93;;;16.50;99.90;;;;;;5062426;28;20263;-61
2024/02/16 12:25:25;;;;;;;5.53;3.40;;;16.50;99.90;;;;;;5057401;28;20417;-62
2024/02/16 12:27:51;;;;;;;3.03;2.73;;;16.50;99.90;;;;;;5059019;28;20405;-65
2024/02/16 12:30:18;;;;;;;3.70;3.40;;;16.70;99.90;;;;;;5061741;28;20888;-63
2024/02/16 12:32:43;;;;;;;3.77;3.33;;;16.80;99.90;;;;;;5067956;28;20447;-65
2024/02/16 12:35:09;;;;;;;3.40;2.77;;;17.00;99.90;;;;;;5060742;28;20492;-64
2024/02/16 12:37:35;;;;;;;4.70;3.80;;;17.00;99.90;;;;;;5068337;28;20636;-63